KDKK/DKK METAR and TAF weather

Enter ICAO airport designator
Station Type Date Time Source
KDKK METAR 2019/08/21 21:53 UTC NOAA

KDKK 212153Z AUTO 24013G17KT 10SM FEW018 26/21 A2988 RMK AO2 SLP113 T02610206 $


Station Type Date Time Source
KDKK Decoded METAR 2019/08/21 21:53 UTC NOAA

Station name not available
Aug 21, 2019 - 05:53 PM EDT / 2019.08.21 2153 UTC
Wind: from the WSW (240 degrees) at 15 MPH (13 KT) gusting to 20 MPH (17 KT):0
Visibility: 10 mile(s):0
Sky conditions: mostly clear
Temperature: 79.0 F (26.1 C)
Dew Point: 69.1 F (20.6 C)
Relative Humidity: 71%
Pressure (altimeter): 29.88 in. Hg (1011 hPa)
ob: KDKK 212153Z AUTO 24013G17KT 10SM FEW018 26/21 A2988 RMK AO2 SLP113 T02610206
cycle: 22

Station Type Date Time Source
KDKK TAF UTC NOAA

Error!

Example: see airport list